Ломово

СКИДКИ НА СМАРТФОНЫ!

Карта отелей и гостиниц, располагающихся рядом с аэропортом Ломово :

Ломово Белгородская область 50° 44' 30.0588" N, 36° 53' 35.34" E
Код аэродрома ИКАО
ZB7H
Код аэродрома RU
ЗБ7Х
Координаты
N50.74168° E036.89315°
Превышение над уровнем моря
205
Основная полоса
07/25
Курс магнитный
067/247
Длина основной ВПП
405
Ширина основной ВПП
18
Покрытие основной ВПП
Твёрдое (асфальт)
Освещение ВПП
Нет
Тип: 
Аэродром
Класс аэродрома: 
Принадлежность: 
ГА
Статус: 
Недействующий
Сайт: 
E-mail аэродрома: 
Страна: 
Россия
Регион: 
Белгородская область
Город: 
Дополнительная информация: 
Площадка АХР.

Скидки на навигаторы!

Найти трансфер

С помощью этой формы Вы можете найти трансфер из аэропорта Ломово в город, аэропорт или вокзал:

Погода в аэропортах:

Авиационная погода в Абакане

Регион: 
Погода METAR: 
UNAA 072100Z 00000MPS 1000 0900SW R02/P2000D PRFG FU SCT010 M28/M30 Q1037 R02/CLRD65 TEMPO 0300 FZFG VV002 RMK QFE755
Время наблюдения
2022-12-07T21:00:00Z
Температура C
-28.0
Точка росы
-30.0
Направление ветра
0
Скорость ветра (узлы)
0
Метео видимость
0.62
Облачность
SCT
Нижняя граница облачности (футы)
1000
Явления погоды
PRFG FU
Условия полета
LIFR
Аэропорт подробнее: 
SCT – разбросанная отдельная облачность;
PRFG - туман просвечивающий; FU – дым (видимость менее 10 км);

Авиационная погода в Бресте

Регион: 
Погода METAR: 
UMBB 070500Z 18003MPS 1800 SHSNRA BR OVC002CB 00/00 Q1007 NOSIG RMK QBB070
Время наблюдения
2022-12-07T05:00:00Z
Температура C
0.0
Точка росы
0.0
Направление ветра
180
Скорость ветра (узлы)
6
Метео видимость
1.12
Облачность
OVC
Нижняя граница облачности (футы)
200
Явления погоды
SHSN SHRA BR
Условия полета
LIFR
Аэропорт подробнее: 
OVC – сплошная облачность;
SHRA - ливневой дождь; SHSN - ливневой снег; BR – дымка (видимость от 1 до 9 км);

Авиационная погода в Пскове

Регион: 
Погода METAR: 
ULOO 072100Z 13005MPS 090V160 0550 0450NE R19/1100D +SN BKN003 OVC017 M05/M07 Q1003 R19/990334 NOSIG RMK QBB110 OBST OBSC QFE748
Время наблюдения
2022-12-07T21:00:00Z
Температура C
-5.0
Точка росы
-7.0
Направление ветра
130
Скорость ветра (узлы)
10
Метео видимость
0.34
Облачность
BKN
OVC
Нижняя граница облачности (футы)
300
1700
Явления погоды
+SN
Условия полета
LIFR
BKN – значительная (рассеянная, разорванная) облачность; OVC – сплошная облачность;
+SN – сильный снег;

Авиационная погода в Савонлинна

Регион: 
Погода METAR: 
EFSA 072050Z AUTO 13008KT 3500 -SN FEW008 BKN022 OVC027 M06/M07 Q1005
Время наблюдения
2022-12-07T20:50:00Z
Температура C
-6.0
Точка росы
-7.0
Направление ветра
130
Скорость ветра (узлы)
8
Метео видимость
2.17
Облачность
FEW
BKN
OVC
Нижняя граница облачности (футы)
800
2200
2700
Явления погоды
-SN
Условия полета
IFR
FEW – незначительная облачность; BKN – значительная (рассеянная, разорванная) облачность; OVC – сплошная облачность;
-SN – слабый снег;